RYR68GA EGCC-EINN
Flight info
| Callsign | RYR68GA |
|---|---|
| Flight time | 0h 52m |
| Altitude | 32000 |
| Route | ASMIM L975 WAL L10 PENIL M144 BAGSO DCT PELIG DCT DIGAN DIGAN2E |
| Aircraft | B738/M-SDE3FGILRWY/SB1 |
Departure
| Time | 2026-05-04 04:28 |
|---|---|
| Airport | Manchester Airport (EGCC) |
Arrival
| Time | 2026-05-04 05:21 |
|---|---|
| Airport | Shannon Airport (EINN) |
| Time | Latitude | Longitude | Altitude | Speed | Heading |
|---|---|---|---|---|---|
| 2026-05-04 04:05 | 53.36144 | -2.26685 | 254 ft | 0 kts | 326° |
| 2026-05-04 04:18 | 53.36136 | -2.26676 | 254 ft | 4 kts | 326° |
| 2026-05-04 04:19 | 53.36116 | -2.26654 | 254 ft | 4 kts | 323° |
| 2026-05-04 04:19 | 53.36099 | -2.26624 | 254 ft | 4 kts | 289° |
| 2026-05-04 04:19 | 53.36097 | -2.26584 | 254 ft | 4 kts | 249° |
| 2026-05-04 04:19 | 53.36111 | -2.26544 | 254 ft | 4 kts | 231° |
| 2026-05-04 04:20 | 53.36127 | -2.26510 | 254 ft | 4 kts | 231° |
| 2026-05-04 04:20 | 53.36144 | -2.26476 | 254 ft | 4 kts | 231° |
| 2026-05-04 04:20 | 53.36149 | -2.26465 | 254 ft | 0 kts | 231° |
| 2026-05-04 04:22 | 53.36142 | -2.26480 | 254 ft | 4 kts | 231° |
| 2026-05-04 04:22 | 53.36115 | -2.26536 | 254 ft | 8 kts | 231° |
| 2026-05-04 04:22 | 53.36062 | -2.26590 | 254 ft | 10 kts | 169° |
| 2026-05-04 04:23 | 53.36000 | -2.26612 | 255 ft | 10 kts | 226° |
| 2026-05-04 04:23 | 53.35950 | -2.26716 | 255 ft | 15 kts | 232° |
| 2026-05-04 04:23 | 53.35881 | -2.26884 | 255 ft | 18 kts | 236° |
| 2026-05-04 04:23 | 53.35809 | -2.27051 | 254 ft | 18 kts | 236° |
| 2026-05-04 04:24 | 53.35738 | -2.27214 | 254 ft | 17 kts | 229° |
| 2026-05-04 04:24 | 53.35663 | -2.27360 | 252 ft | 17 kts | 229° |
| 2026-05-04 04:24 | 53.35576 | -2.27544 | 243 ft | 21 kts | 231° |
| 2026-05-04 04:24 | 53.35488 | -2.27727 | 238 ft | 18 kts | 231° |
| 2026-05-04 04:25 | 53.35459 | -2.27848 | 239 ft | 12 kts | 268° |
| 2026-05-04 04:25 | 53.35420 | -2.27981 | 239 ft | 15 kts | 223° |
| 2026-05-04 04:25 | 53.35337 | -2.28114 | 236 ft | 19 kts | 224° |
| 2026-05-04 04:25 | 53.35238 | -2.28287 | 231 ft | 21 kts | 230° |
| 2026-05-04 04:26 | 53.35142 | -2.28485 | 226 ft | 22 kts | 231° |
| 2026-05-04 04:26 | 53.35046 | -2.28683 | 228 ft | 22 kts | 230° |
| 2026-05-04 04:26 | 53.34946 | -2.28858 | 225 ft | 20 kts | 226° |
| 2026-05-04 04:26 | 53.34851 | -2.29023 | 222 ft | 18 kts | 220° |
| 2026-05-04 04:27 | 53.34737 | -2.29063 | 217 ft | 17 kts | 165° |
| 2026-05-04 04:27 | 53.34668 | -2.28977 | 217 ft | 10 kts | 110° |
| 2026-05-04 04:27 | 53.34701 | -2.28886 | 220 ft | 9 kts | 50° |
| 2026-05-04 04:27 | 53.34759 | -2.28766 | 225 ft | 31 kts | 51° |
| 2026-05-04 04:28 | 53.35045 | -2.28176 | 232 ft | 99 kts | 51° |
| 2026-05-04 04:28 | 53.35600 | -2.27022 | 261 ft | 152 kts | 52° |
| 2026-05-04 04:28 | 53.36282 | -2.25563 | 807 ft | 160 kts | 52° |
| 2026-05-04 04:28 | 53.36968 | -2.24094 | 1561 ft | 165 kts | 52° |
| 2026-05-04 04:29 | 53.37750 | -2.22501 | 1917 ft | 192 kts | 51° |
| 2026-05-04 04:29 | 53.38856 | -2.21013 | 2113 ft | 221 kts | 19° |
| 2026-05-04 04:29 | 53.40430 | -2.21109 | 2511 ft | 241 kts | 339° |
| 2026-05-04 04:29 | 53.41727 | -2.23019 | 2934 ft | 261 kts | 298° |
| 2026-05-04 04:30 | 53.42391 | -2.25820 | 3929 ft | 257 kts | 292° |
| 2026-05-04 04:30 | 53.43101 | -2.28582 | 4826 ft | 259 kts | 296° |
| 2026-05-04 04:30 | 53.43883 | -2.31335 | 5646 ft | 263 kts | 296° |
| 2026-05-04 04:30 | 53.44688 | -2.34061 | 6454 ft | 267 kts | 296° |
| 2026-05-04 04:31 | 53.45533 | -2.36874 | 7232 ft | 270 kts | 297° |
| 2026-05-04 04:31 | 53.46389 | -2.39695 | 8034 ft | 273 kts | 296° |
| 2026-05-04 04:31 | 53.46969 | -2.42720 | 8801 ft | 276 kts | 272° |
| 2026-05-04 04:31 | 53.46797 | -2.45936 | 9654 ft | 277 kts | 260° |
| 2026-05-04 04:32 | 53.46436 | -2.49131 | 10349 ft | 284 kts | 259° |
| 2026-05-04 04:32 | 53.46035 | -2.52524 | 10539 ft | 308 kts | 259° |
| 2026-05-04 04:32 | 53.45618 | -2.56155 | 10908 ft | 323 kts | 259° |
| 2026-05-04 04:32 | 53.45199 | -2.59890 | 11567 ft | 329 kts | 260° |
| 2026-05-04 04:33 | 53.44781 | -2.63656 | 12260 ft | 333 kts | 260° |
| 2026-05-04 04:33 | 53.44354 | -2.67513 | 12977 ft | 339 kts | 260° |
| 2026-05-04 04:33 | 53.43920 | -2.71434 | 13737 ft | 343 kts | 260° |
| 2026-05-04 04:33 | 53.43481 | -2.75395 | 14422 ft | 348 kts | 260° |
| 2026-05-04 04:34 | 53.43034 | -2.79417 | 15131 ft | 352 kts | 260° |
| 2026-05-04 04:34 | 53.42586 | -2.83433 | 15838 ft | 356 kts | 260° |
| 2026-05-04 04:34 | 53.42125 | -2.87555 | 16559 ft | 360 kts | 260° |
| 2026-05-04 04:34 | 53.41658 | -2.91711 | 17263 ft | 365 kts | 260° |
| 2026-05-04 04:35 | 53.41183 | -2.95937 | 17943 ft | 370 kts | 260° |
| 2026-05-04 04:35 | 53.40709 | -3.00140 | 18595 ft | 374 kts | 260° |
| 2026-05-04 04:35 | 53.40220 | -3.04452 | 19244 ft | 377 kts | 259° |
| 2026-05-04 04:35 | 53.39749 | -3.08784 | 19857 ft | 380 kts | 264° |
| 2026-05-04 04:36 | 53.39840 | -3.13234 | 20363 ft | 384 kts | 284° |
| 2026-05-04 04:36 | 53.40805 | -3.17409 | 20956 ft | 385 kts | 303° |
| 2026-05-04 04:36 | 53.42315 | -3.21049 | 21593 ft | 386 kts | 307° |
| 2026-05-04 04:36 | 53.43912 | -3.24703 | 22192 ft | 390 kts | 308° |
| 2026-05-04 04:37 | 53.48774 | -3.35933 | 23832 ft | 401 kts | 307° |
| 2026-05-04 04:37 | 53.50404 | -3.39768 | 24326 ft | 404 kts | 307° |
| 2026-05-04 04:38 | 53.52037 | -3.43630 | 24805 ft | 406 kts | 308° |
| 2026-05-04 04:38 | 53.53655 | -3.47468 | 25269 ft | 409 kts | 308° |
| 2026-05-04 04:38 | 53.55314 | -3.51408 | 25730 ft | 412 kts | 308° |
| 2026-05-04 04:38 | 53.56973 | -3.55354 | 26184 ft | 415 kts | 308° |
| 2026-05-04 04:39 | 53.58629 | -3.59297 | 26624 ft | 417 kts | 309° |
| 2026-05-04 04:39 | 53.60216 | -3.63427 | 27043 ft | 424 kts | 301° |
| 2026-05-04 04:39 | 53.61354 | -3.68059 | 27462 ft | 432 kts | 291° |
| 2026-05-04 04:39 | 53.61997 | -3.73045 | 27960 ft | 438 kts | 280° |
| 2026-05-04 04:40 | 53.62220 | -3.78170 | 28556 ft | 438 kts | 277° |
| 2026-05-04 04:40 | 53.62372 | -3.83311 | 29091 ft | 438 kts | 277° |
| 2026-05-04 04:40 | 53.62547 | -3.88441 | 29547 ft | 439 kts | 278° |
| 2026-05-04 04:40 | 53.62750 | -3.93528 | 30031 ft | 440 kts | 279° |
| 2026-05-04 04:41 | 53.62965 | -3.98663 | 30497 ft | 439 kts | 279° |
| 2026-05-04 04:41 | 53.63171 | -4.03784 | 31014 ft | 436 kts | 278° |
| 2026-05-04 04:41 | 53.63368 | -4.08852 | 31560 ft | 432 kts | 278° |
| 2026-05-04 04:41 | 53.63561 | -4.13905 | 32018 ft | 432 kts | 277° |
| 2026-05-04 04:42 | 53.63943 | -4.24089 | 32026 ft | 433 kts | 278° |
| 2026-05-04 04:42 | 53.64311 | -4.34146 | 32027 ft | 431 kts | 278° |
| 2026-05-04 04:43 | 53.64667 | -4.44243 | 32034 ft | 431 kts | 278° |
| 2026-05-04 04:43 | 53.65016 | -4.54336 | 32033 ft | 431 kts | 278° |
| 2026-05-04 04:44 | 53.65358 | -4.64416 | 32032 ft | 431 kts | 278° |
| 2026-05-04 04:44 | 53.65694 | -4.74524 | 32029 ft | 431 kts | 278° |
| 2026-05-04 04:45 | 53.66020 | -4.84576 | 32037 ft | 431 kts | 278° |
| 2026-05-04 04:47 | 53.67160 | -5.19978 | 32036 ft | 433 kts | 278° |
| 2026-05-04 04:47 | 53.67451 | -5.30156 | 32036 ft | 433 kts | 278° |
| 2026-05-04 04:48 | 53.67736 | -5.40282 | 32039 ft | 434 kts | 278° |
| 2026-05-04 04:49 | 53.65535 | -5.60378 | 32048 ft | 450 kts | 250° |
| 2026-05-04 04:49 | 53.64280 | -5.65215 | 32035 ft | 450 kts | 250° |
| 2026-05-04 04:49 | 53.61739 | -5.74894 | 32039 ft | 450 kts | 250° |
| 2026-05-04 04:50 | 53.59248 | -5.84514 | 32045 ft | 450 kts | 250° |
| 2026-05-04 04:50 | 53.56773 | -5.94160 | 32036 ft | 450 kts | 250° |
| 2026-05-04 04:51 | 53.54696 | -6.02255 | 32044 ft | 449 kts | 250° |
| 2026-05-04 04:51 | 53.52222 | -6.11861 | 32045 ft | 449 kts | 250° |
| 2026-05-04 04:52 | 53.49732 | -6.21481 | 32038 ft | 449 kts | 250° |
| 2026-05-04 04:52 | 53.47244 | -6.31047 | 32007 ft | 443 kts | 249° |
| 2026-05-04 04:53 | 53.46010 | -6.35774 | 31686 ft | 438 kts | 249° |
| 2026-05-04 04:53 | 53.44797 | -6.40407 | 31410 ft | 432 kts | 249° |
| 2026-05-04 04:53 | 53.43589 | -6.45023 | 31052 ft | 430 kts | 249° |
| 2026-05-04 04:53 | 53.42397 | -6.49565 | 30702 ft | 427 kts | 249° |
| 2026-05-04 04:54 | 53.41197 | -6.54129 | 30345 ft | 425 kts | 249° |
| 2026-05-04 04:54 | 53.40008 | -6.58645 | 30013 ft | 422 kts | 249° |
| 2026-05-04 04:54 | 53.38820 | -6.63147 | 29631 ft | 420 kts | 249° |
| 2026-05-04 04:54 | 53.37654 | -6.67555 | 29279 ft | 416 kts | 249° |
| 2026-05-04 04:55 | 53.36485 | -6.71964 | 28911 ft | 412 kts | 249° |
| 2026-05-04 04:55 | 53.35324 | -6.76335 | 28565 ft | 409 kts | 249° |
| 2026-05-04 04:55 | 53.34170 | -6.80674 | 28205 ft | 406 kts | 249° |
| 2026-05-04 04:55 | 53.33023 | -6.84976 | 27855 ft | 402 kts | 249° |
| 2026-05-04 04:56 | 53.31889 | -6.89223 | 27496 ft | 400 kts | 248° |
| 2026-05-04 04:56 | 53.30757 | -6.93455 | 27156 ft | 397 kts | 248° |
| 2026-05-04 04:56 | 53.29641 | -6.97623 | 26815 ft | 394 kts | 248° |
| 2026-05-04 04:56 | 53.28520 | -7.01795 | 26477 ft | 391 kts | 248° |
| 2026-05-04 04:57 | 53.27395 | -7.05981 | 26131 ft | 389 kts | 248° |
| 2026-05-04 04:57 | 53.26301 | -7.10040 | 25806 ft | 386 kts | 248° |
| 2026-05-04 04:57 | 53.25196 | -7.14136 | 25473 ft | 384 kts | 248° |
| 2026-05-04 04:57 | 53.24108 | -7.18161 | 25129 ft | 382 kts | 248° |
| 2026-05-04 04:58 | 53.23004 | -7.22239 | 24794 ft | 380 kts | 248° |
| 2026-05-04 04:58 | 53.21931 | -7.26198 | 24471 ft | 378 kts | 248° |
| 2026-05-04 04:58 | 53.20848 | -7.30180 | 24140 ft | 376 kts | 248° |
| 2026-05-04 04:58 | 53.19768 | -7.34139 | 23821 ft | 374 kts | 247° |
| 2026-05-04 04:59 | 53.18637 | -7.38047 | 23593 ft | 371 kts | 245° |
| 2026-05-04 04:59 | 53.17481 | -7.41885 | 23307 ft | 369 kts | 245° |
| 2026-05-04 04:59 | 53.16323 | -7.45688 | 23037 ft | 366 kts | 245° |
| 2026-05-04 04:59 | 53.15174 | -7.49461 | 22778 ft | 362 kts | 245° |
| 2026-05-04 05:00 | 53.14058 | -7.53135 | 22487 ft | 359 kts | 245° |
| 2026-05-04 05:00 | 53.12934 | -7.56841 | 22151 ft | 357 kts | 245° |
| 2026-05-04 05:00 | 53.10712 | -7.64186 | 21510 ft | 353 kts | 245° |
| 2026-05-04 05:01 | 53.09611 | -7.67819 | 21180 ft | 351 kts | 245° |
| 2026-05-04 05:01 | 53.08510 | -7.71450 | 20859 ft | 349 kts | 245° |
| 2026-05-04 05:01 | 53.07433 | -7.74999 | 20544 ft | 347 kts | 244° |
| 2026-05-04 05:01 | 53.06346 | -7.78573 | 20228 ft | 345 kts | 244° |
| 2026-05-04 05:02 | 53.05267 | -7.82117 | 19919 ft | 343 kts | 244° |
| 2026-05-04 05:02 | 53.04191 | -7.85648 | 19602 ft | 342 kts | 244° |
| 2026-05-04 05:02 | 53.03113 | -7.89178 | 19285 ft | 340 kts | 244° |
| 2026-05-04 05:02 | 53.02044 | -7.92673 | 18968 ft | 338 kts | 244° |
| 2026-05-04 05:03 | 53.00981 | -7.96147 | 18664 ft | 337 kts | 244° |
| 2026-05-04 05:03 | 52.99926 | -7.99586 | 18350 ft | 336 kts | 244° |
| 2026-05-04 05:04 | 52.96761 | -8.09886 | 17325 ft | 330 kts | 244° |
| 2026-05-04 05:04 | 52.95716 | -8.13275 | 17006 ft | 328 kts | 244° |
| 2026-05-04 05:04 | 52.94676 | -8.16637 | 16711 ft | 326 kts | 244° |
| 2026-05-04 05:06 | 52.91630 | -8.41029 | 14845 ft | 304 kts | 262° |
| 2026-05-04 05:06 | 52.91299 | -8.44480 | 14549 ft | 303 kts | 262° |
| 2026-05-04 05:06 | 52.90964 | -8.47927 | 14253 ft | 302 kts | 262° |
| 2026-05-04 05:07 | 52.90626 | -8.51384 | 13955 ft | 302 kts | 262° |
| 2026-05-04 05:07 | 52.90289 | -8.54815 | 13626 ft | 301 kts | 262° |
| 2026-05-04 05:07 | 52.89954 | -8.58200 | 13310 ft | 300 kts | 262° |
| 2026-05-04 05:09 | 52.87258 | -8.85097 | 10888 ft | 292 kts | 262° |
| 2026-05-04 05:09 | 52.86783 | -8.88357 | 10563 ft | 293 kts | 245° |
| 2026-05-04 05:10 | 52.85640 | -8.91147 | 10338 ft | 291 kts | 233° |
| 2026-05-04 05:10 | 52.84389 | -8.93779 | 10115 ft | 287 kts | 232° |
| 2026-05-04 05:10 | 52.83163 | -8.96343 | 9920 ft | 283 kts | 232° |
| 2026-05-04 05:10 | 52.81949 | -8.98890 | 9614 ft | 282 kts | 233° |
| 2026-05-04 05:11 | 52.80749 | -9.01416 | 9328 ft | 281 kts | 233° |
| 2026-05-04 05:11 | 52.79542 | -9.03962 | 9042 ft | 279 kts | 233° |
| 2026-05-04 05:11 | 52.78346 | -9.06492 | 8764 ft | 278 kts | 233° |
| 2026-05-04 05:11 | 52.77160 | -9.09001 | 8487 ft | 277 kts | 233° |
| 2026-05-04 05:12 | 52.75970 | -9.11518 | 8199 ft | 276 kts | 233° |
| 2026-05-04 05:12 | 52.74790 | -9.14011 | 7921 ft | 275 kts | 233° |
| 2026-05-04 05:12 | 52.73626 | -9.16473 | 7653 ft | 275 kts | 233° |
| 2026-05-04 05:12 | 52.72448 | -9.18961 | 7378 ft | 274 kts | 233° |
| 2026-05-04 05:13 | 52.71275 | -9.21437 | 7115 ft | 273 kts | 233° |
| 2026-05-04 05:13 | 52.70106 | -9.23902 | 6848 ft | 272 kts | 233° |
| 2026-05-04 05:13 | 52.68938 | -9.26359 | 6586 ft | 272 kts | 232° |
| 2026-05-04 05:13 | 52.67773 | -9.28809 | 6313 ft | 271 kts | 232° |
| 2026-05-04 05:14 | 52.66438 | -9.30906 | 6063 ft | 269 kts | 207° |
| 2026-05-04 05:14 | 52.64685 | -9.31673 | 5877 ft | 260 kts | 178° |
| 2026-05-04 05:14 | 52.62934 | -9.31058 | 5546 ft | 257 kts | 153° |
| 2026-05-04 05:14 | 52.61427 | -9.29495 | 5247 ft | 255 kts | 140° |
| 2026-05-04 05:15 | 52.60030 | -9.27679 | 4920 ft | 256 kts | 139° |
| 2026-05-04 05:15 | 52.58641 | -9.25848 | 4567 ft | 254 kts | 139° |
| 2026-05-04 05:15 | 52.57303 | -9.24008 | 4221 ft | 248 kts | 129° |
| 2026-05-04 05:15 | 52.56638 | -9.21576 | 4087 ft | 225 kts | 90° |
| 2026-05-04 05:16 | 52.57047 | -9.19243 | 3903 ft | 211 kts | 50° |
| 2026-05-04 05:16 | 52.58097 | -9.17631 | 3656 ft | 203 kts | 43° |
| 2026-05-04 05:16 | 52.59047 | -9.16003 | 3401 ft | 196 kts | 47° |
| 2026-05-04 05:16 | 52.59921 | -9.14348 | 3133 ft | 187 kts | 50° |
| 2026-05-04 05:17 | 52.60720 | -9.12701 | 2896 ft | 181 kts | 51° |
| 2026-05-04 05:17 | 52.61487 | -9.11074 | 2635 ft | 178 kts | 52° |
| 2026-05-04 05:17 | 52.62239 | -9.09468 | 2388 ft | 176 kts | 52° |
| 2026-05-04 05:17 | 52.62978 | -9.07888 | 2146 ft | 172 kts | 52° |
| 2026-05-04 05:18 | 52.63696 | -9.06356 | 1926 ft | 166 kts | 52° |
| 2026-05-04 05:18 | 52.64393 | -9.04867 | 1693 ft | 162 kts | 52° |
| 2026-05-04 05:18 | 52.65074 | -9.03414 | 1470 ft | 158 kts | 52° |
| 2026-05-04 05:18 | 52.65735 | -9.02003 | 1255 ft | 152 kts | 52° |
| 2026-05-04 05:19 | 52.66382 | -9.00624 | 1052 ft | 151 kts | 51° |
| 2026-05-04 05:19 | 52.67001 | -8.99305 | 854 ft | 141 kts | 50° |
| 2026-05-04 05:19 | 52.67596 | -8.98035 | 671 ft | 138 kts | 51° |
| 2026-05-04 05:19 | 52.68176 | -8.96765 | 470 ft | 143 kts | 50° |
| 2026-05-04 05:20 | 52.68805 | -8.95437 | 293 ft | 146 kts | 49° |
| 2026-05-04 05:20 | 52.69442 | -8.94093 | 56 ft | 150 kts | 50° |
| 2026-05-04 05:20 | 52.70017 | -8.92873 | 36 ft | 117 kts | 52° |
| 2026-05-04 05:20 | 52.70386 | -8.92092 | 32 ft | 60 kts | 52° |
| 2026-05-04 05:21 | 52.70608 | -8.91624 | 27 ft | 35 kts | 52° |
| 2026-05-04 05:21 | 52.70723 | -8.91377 | 25 ft | 24 kts | 52° |
| 2026-05-04 05:21 | 52.70762 | -8.91182 | 27 ft | 17 kts | 138° |
| 2026-05-04 05:21 | 52.70649 | -8.91137 | 22 ft | 16 kts | 169° |
| 2026-05-04 05:22 | 52.70539 | -8.91102 | 22 ft | 16 kts | 169° |
| 2026-05-04 05:22 | 52.70432 | -8.91070 | 22 ft | 15 kts | 169° |
| 2026-05-04 05:22 | 52.70331 | -8.91039 | 21 ft | 15 kts | 169° |
| 2026-05-04 05:22 | 52.70221 | -8.91008 | 22 ft | 17 kts | 178° |
| 2026-05-04 05:23 | 52.70105 | -8.91059 | 21 ft | 17 kts | 198° |
| 2026-05-04 05:23 | 52.69989 | -8.91123 | 22 ft | 19 kts | 198° |
| 2026-05-04 05:23 | 52.69852 | -8.91198 | 21 ft | 22 kts | 199° |
| 2026-05-04 05:23 | 52.69704 | -8.91280 | 21 ft | 23 kts | 198° |
| 2026-05-04 05:24 | 52.69557 | -8.91362 | 22 ft | 22 kts | 199° |
| 2026-05-04 05:24 | 52.69414 | -8.91442 | 21 ft | 21 kts | 199° |
| 2026-05-04 05:24 | 52.69300 | -8.91503 | 21 ft | 12 kts | 198° |
| 2026-05-04 05:24 | 52.69264 | -8.91596 | 21 ft | 12 kts | 297° |
| 2026-05-04 05:25 | 52.69318 | -8.91706 | 21 ft | 12 kts | 316° |
| 2026-05-04 05:25 | 52.69392 | -8.91759 | 21 ft | 9 kts | 342° |
| 2026-05-04 05:25 | 52.69406 | -8.91799 | 21 ft | 4 kts | 250° |
| 2026-05-04 05:25 | 52.69380 | -8.91847 | 21 ft | 6 kts | 224° |
| 2026-05-04 05:26 | 52.69365 | -8.91871 | 21 ft | 1 kts | 224° |
| 2026-05-04 05:26 | 52.69364 | -8.91872 | 21 ft | 0 kts | 224° |